• Join FlightAware (Why Join?)
  • Login
  • US Flag 
08:08PM EST


 

Airport Tracker/Info


-or-


 

Live Flight TrackerFlight Track Log ✈ ASQ6150 ✈ 26-Apr-2013 ✈ KCRW - KIAD

Flight Track Log - Related Links

Times and Time Zones

All times are in EDT time to prevent confusion due to time zone crossing. See the ASQ6150 flight status page for this flight to view local times or setup timezone preferences in your user account.

Time Position Orientation Groundspeed Altitude Reporting Facility
EDT Latitude Longitude Course Direction KTS MPH feet Rate Location/Type
06:47PM 38.3492 -81.6158 90° East 171 197 2,900  Level Indianapolis Center
06:48PM 38.3147 -81.5733 136° Southeast 211 243 6,000 2,820 Climbing Indianapolis Center
06:49PM 38.3419 -81.4767 70° East 248 285 8,800 2,040 Climbing Indianapolis Center
06:51PM 38.3369 -81.3764 94° East 288 331 10,300 1,740 Climbing Indianapolis Center
06:52PM 38.3167 -81.2223 90° East  Level FlightAware Approximate
06:52PM 38.3339 -81.2578 92° East 331 381 12,400  Level Indianapolis Center
06:53PM 38.3168 -81.1019 90° East  Level FlightAware Approximate
06:53PM 38.3286 -81.1333 93° East 350 403 14,400  Level Indianapolis Center
06:54PM 38.3239 -81.0044 93° East 363 418 16,400 1,860 Climbing Indianapolis Center
06:54PM 38.3203 -80.9564 95° East 368 423 17,100 1,620 Climbing Washington Center
06:55PM 38.3158 -80.8211 92° East 361 415 18,700 1,800 Climbing Washington Center
06:56PM 38.3119 -80.6700 92° East 379 436 20,700 1,140 Climbing Washington Center
06:57PM 38.3056 -80.5214 93° East 398 458 21,000 120 Climbing Washington Center
06:58PM 38.3225 -80.3636 82° East 422 486 21,000  Level Washington Center
06:59PM 38.3578 -80.2044 74° East 442 509 21,000  Level Washington Center
07:00PM 38.3881 -80.0633 75° East 451 519 21,000  Level Washington Center
07:01PM 38.4231 -79.9089 74° East 451 519 21,000  Level Washington Center
07:02PM 38.4578 -79.7492 74° East 451 519 21,000  Level Washington Center
07:03PM 38.4903 -79.5919 75° East 451 519 21,000  Level Washington Center
07:04PM 38.5294 -79.4161 74° East 451 519 21,000 -300 Level Washington Center
07:05PM 38.5553 -79.2581 78° East 456 525 20,500 -780 Descending Washington Center
07:06PM 38.5783 -79.1106 79° East 443 510 19,500 -900 Descending Washington Center
07:07PM 38.6011 -78.9708 78° East 423 487 18,800 -720 Descending Washington Center
07:08PM 38.6281 -78.8258 77° East 408 470 18,100 -1,440 Descending Washington Center
07:09PM 38.6586 -78.6969 73° East 403 464 16,000 -2,280 Descending Washington Center
07:10PM 38.6867 -78.5706 74° East 379 436 13,700 -2,220 Descending Washington Center
07:11PM 38.7125 -78.4544 74° East 358 412 11,600 -1,380 Descending Washington Center
07:12PM 38.7442 -78.3492 69° East 332 382 11,000 -780 Descending Washington Center
07:13PM 38.7217 -78.2419 105° East 296 341 10,100 -1,080 Descending Washington Center
07:14PM 38.6947 -78.1372 108° East 296 341 8,900 -1,200 Descending Washington Center
07:15PM 38.6675 -78.0406 110° East 296 341 7,700 -1,200 Descending Washington Center
07:16PM 38.6653 -77.9419 92° East 285 328 6,600 -1,080 Descending Washington Center
07:17PM 38.6650 -77.8489 90° East 273 314 5,600 -840 Descending Washington Center
07:18PM 38.6644 -77.7614 90° East 262 302 5,000 -300 Descending Washington Center
07:19PM 38.6658 -77.6817 89° East 237 273 5,000  Level Washington Center
07:20PM 38.6667 -77.5833 89° East 237 273 5,000  Level Potomac TRACON
07:21PM 38.6833 -77.4833 78° East 236 272 5,000 -300 Level Potomac TRACON
07:22PM 38.7333 -77.4667 15° North 226 260 4,500 -960 Descending Potomac TRACON
07:23PM 38.8000 -77.4667 360° North 211 243 3,200 -1,320 Descending Potomac TRACON